Time;durP1;ratioP1;P1;durP2;ratioP2;P2;SDS_P1;SDS_P2;PMS_P1;PMS_P2;Temp;Humidity;BMP_temperature;BMP_pressure;BME280_temperature;BME280_humidity;BME280_pressure;Samples;Min_cycle;Max_cycle;Signal;HPM_P1;HPM_P2
2022/06/02 00:01:40;;;;;;;8.60;5.32;;;9.40;99.90;;;;;;4995039;28;20134;-76
2022/06/02 00:04:37;;;;;;;7.20;5.00;;;9.40;99.90;;;;;;4996546;28;20120;-76
2022/06/02 00:07:13;;;;;;;5.93;4.35;;;9.40;99.90;;;;;;4995640;28;20139;-76
2022/06/02 00:10:03;;;;;;;8.13;5.70;;;9.30;99.90;;;;;;4995155;28;20057;-76
2022/06/02 00:12:30;;;;;;;7.13;5.25;;;9.30;99.90;;;;;;4995749;28;20042;-76
2022/06/02 00:14:56;;;;;;;7.05;5.25;;;9.40;99.90;;;;;;4994995;28;20077;-75
2022/06/02 00:17:32;;;;;;;6.97;5.15;;;9.20;99.90;;;;;;4995685;28;20042;-76
2022/06/02 00:20:23;;;;;;;6.72;5.32;;;9.10;99.90;;;;;;4994453;28;20046;-75
2022/06/02 00:23:05;;;;;;;7.28;5.45;;;9.10;99.90;;;;;;4995522;28;20117;-75
2022/06/02 00:25:38;;;;;;;7.95;5.60;;;9.00;99.90;;;;;;4994384;28;20042;-75
2022/06/02 00:28:11;;;;;;;7.10;5.45;;;9.20;99.90;;;;;;4994855;28;20051;-75
2022/06/02 00:31:13;;;;;;;7.07;5.32;;;9.00;99.90;;;;;;4994764;28;20057;-76
2022/06/02 00:34:09;;;;;;;7.57;5.60;;;9.00;99.90;;;;;;4988464;28;20062;-75
2022/06/02 00:37:01;;;;;;;7.43;5.55;;;8.80;99.90;;;;;;4994932;28;20042;-76
2022/06/02 00:39:31;;;;;;;7.35;5.30;;;8.90;99.90;;;;;;4995784;28;20439;-75
2022/06/02 00:42:24;;;;;;;7.25;6.03;;;8.90;99.90;;;;;;4995200;28;20101;-76
2022/06/02 00:45:04;;;;;;;7.88;6.30;;;8.90;99.90;;;;;;4994683;28;20065;-75
2022/06/02 00:47:54;;;;;;;8.00;6.40;;;8.90;99.90;;;;;;4993870;28;20054;-75
2022/06/02 00:50:23;;;;;;;10.55;6.10;;;8.90;99.90;;;;;;4993880;28;20054;-75
2022/06/02 00:53:07;;;;;;;7.47;6.40;;;8.80;99.90;;;;;;4994941;28;20050;-76
2022/06/02 00:58:28;;;;;;;9.38;5.88;;;9.10;99.90;;;;;;4994898;28;20100;-75
2022/06/02 01:01:02;;;;;;;6.97;6.10;;;9.00;99.90;;;;;;4994904;28;20050;-76
2022/06/02 01:03:40;;;;;;;8.80;5.95;;;8.90;99.90;;;;;;4993677;28;20050;-75
2022/06/02 01:06:35;;;;;;;10.57;5.68;;;8.80;99.90;;;;;;4994757;28;20467;-75
2022/06/02 01:09:34;;;;;;;7.78;5.75;;;8.80;99.90;;;;;;4994039;28;20089;-75
2022/06/02 01:12:29;;;;;;;7.55;5.85;;;8.80;99.90;;;;;;4993733;28;20082;-76
2022/06/02 01:15:13;;;;;;;7.95;6.03;;;8.60;99.90;;;;;;4995222;28;20050;-76
2022/06/02 01:18:21;;;;;;;8.70;6.00;;;8.60;99.90;;;;;;4995467;28;20124;-76
2022/06/02 01:20:54;;;;;;;9.18;6.20;;;8.60;99.90;;;;;;4993662;28;20141;-76
2022/06/02 01:23:53;;;;;;;8.48;5.55;;;9.10;99.90;;;;;;4994460;28;20106;-76
2022/06/02 01:26:27;;;;;;;7.70;6.43;;;8.50;99.90;;;;;;4993415;28;20528;-76
2022/06/02 01:29:13;;;;;;;7.63;6.03;;;8.50;99.90;;;;;;4994775;28;20046;-76
2022/06/02 01:31:50;;;;;;;8.90;6.05;;;9.10;99.90;;;;;;4983328;28;20490;-76
2022/06/02 01:34:22;;;;;;;8.35;6.35;;;8.50;99.90;;;;;;4993758;28;20132;-76
2022/06/02 01:37:05;;;;;;;9.27;6.45;;;8.70;99.90;;;;;;4994376;28;20046;-76
2022/06/02 01:39:57;;;;;;;8.10;6.30;;;8.40;99.90;;;;;;4995187;28;20046;-76
2022/06/02 01:42:41;;;;;;;7.43;5.70;;;8.50;99.90;;;;;;4993361;28;20149;-76
2022/06/02 01:45:07;;;;;;;9.23;6.38;;;8.50;99.90;;;;;;4994569;28;20065;-77
2022/06/02 01:47:36;;;;;;;7.78;6.00;;;8.50;99.90;;;;;;4994119;28;20056;-76
2022/06/02 01:50:44;;;;;;;9.43;6.88;;;8.80;99.90;;;;;;4994216;28;20046;-77
2022/06/02 01:53:39;;;;;;;8.88;6.32;;;8.60;99.90;;;;;;4994509;28;20046;-77
2022/06/02 01:56:28;;;;;;;8.35;6.40;;;8.70;99.90;;;;;;4994153;28;20069;-76
2022/06/02 01:59:18;;;;;;;8.40;6.40;;;8.60;99.90;;;;;;4986934;28;20106;-77
2022/06/02 02:02:01;;;;;;;10.40;7.40;;;8.60;99.90;;;;;;4994955;28;20375;-76
2022/06/02 02:04:49;;;;;;;7.72;6.70;;;8.60;99.90;;;;;;4994718;28;20046;-76
2022/06/02 02:07:37;;;;;;;9.75;6.68;;;8.60;99.90;;;;;;4993162;28;20050;-76
2022/06/02 02:10:12;;;;;;;9.90;7.15;;;8.50;99.90;;;;;;4993880;28;20046;-76
2022/06/02 02:12:46;;;;;;;10.10;7.03;;;8.60;99.90;;;;;;4993823;28;20058;-76
2022/06/02 02:15:42;;;;;;;9.52;6.75;;;9.00;99.90;;;;;;4993326;28;20073;-76
2022/06/02 02:18:30;;;;;;;8.77;6.82;;;8.50;99.90;;;;;;4993969;28;20051;-76
2022/06/02 02:21:16;;;;;;;9.80;6.97;;;8.50;99.90;;;;;;4994753;28;20442;-76
2022/06/02 02:23:44;;;;;;;8.85;7.38;;;8.30;99.90;;;;;;4993938;28;20046;-76
2022/06/02 02:26:33;;;;;;;9.48;7.53;;;8.70;99.90;;;;;;4993775;28;20042;-76
2022/06/02 02:29:31;;;;;;;11.07;7.95;;;8.40;99.90;;;;;;4993950;28;20124;-76
2022/06/02 02:32:07;;;;;;;12.48;8.45;;;8.40;99.90;;;;;;4986563;28;20458;-75
2022/06/02 02:34:42;;;;;;;9.93;7.50;;;8.80;99.90;;;;;;4997840;28;20467;-76
2022/06/02 02:37:28;;;;;;;10.80;7.90;;;8.40;99.90;;;;;;4997556;28;20046;-76
2022/06/02 02:40:27;;;;;;;11.70;8.23;;;8.50;99.90;;;;;;4995816;28;20442;-75
2022/06/02 02:43:05;;;;;;;9.68;7.82;;;8.30;99.90;;;;;;4995993;28;20054;-76
2022/06/02 02:45:46;;;;;;;12.20;8.10;;;8.30;99.90;;;;;;4995915;28;20085;-75
2022/06/02 02:48:49;;;;;;;11.43;8.00;;;8.30;99.90;;;;;;4997101;28;20491;-75
2022/06/02 02:51:46;;;;;;;11.20;8.25;;;8.20;99.90;;;;;;4997330;28;20137;-75
2022/06/02 02:54:29;;;;;;;10.27;7.13;;;8.20;99.90;;;;;;4997286;28;20046;-75
2022/06/02 02:57:16;;;;;;;11.60;8.05;;;8.30;99.90;;;;;;4997288;28;20053;-75
2022/06/02 02:59:57;;;;;;;9.77;7.50;;;8.20;99.90;;;;;;4997117;28;20088;-76
2022/06/02 03:02:47;;;;;;;9.07;7.43;;;8.30;99.90;;;;;;4997221;28;20046;-75
2022/06/02 03:05:28;;;;;;;9.60;7.28;;;8.20;99.90;;;;;;4997602;28;20137;-75
2022/06/02 03:08:05;;;;;;;10.07;7.50;;;8.20;99.90;;;;;;4996592;28;20044;-75
2022/06/02 03:10:36;;;;;;;9.60;7.45;;;8.10;99.90;;;;;;4996600;28;20054;-76
2022/06/02 03:13:16;;;;;;;9.93;7.10;;;7.80;99.90;;;;;;4996944;28;20046;-75
2022/06/02 03:15:50;;;;;;;12.27;7.40;;;8.30;99.90;;;;;;4996179;28;20398;-75
2022/06/02 03:18:29;;;;;;;9.80;6.85;;;8.30;99.90;;;;;;4995510;28;20047;-75
2022/06/02 03:21:08;;;;;;;11.57;7.88;;;8.20;99.90;;;;;;4996530;28;20120;-75
2022/06/02 03:23:49;;;;;;;9.35;7.53;;;8.20;99.90;;;;;;4996558;28;20082;-75
2022/06/02 03:26:21;;;;;;;12.23;8.02;;;8.20;99.90;;;;;;4996613;28;20054;-75
2022/06/02 03:29:26;;;;;;;11.13;8.13;;;8.30;99.90;;;;;;4996403;28;20609;-74
2022/06/02 03:32:07;;;;;;;10.98;7.95;;;8.20;99.90;;;;;;4996105;28;20543;-74
2022/06/02 03:34:40;;;;;;;9.75;7.60;;;8.20;99.90;;;;;;4995478;28;20046;-75
2022/06/02 03:37:11;;;;;;;11.13;8.15;;;8.60;99.90;;;;;;4995485;28;20061;-75
2022/06/02 03:39:52;;;;;;;12.25;7.95;;;8.10;99.90;;;;;;4996407;28;20050;-75
2022/06/02 03:42:27;;;;;;;11.55;7.55;;;8.10;99.90;;;;;;4995257;28;20470;-75
2022/06/02 03:45:09;;;;;;;9.88;7.72;;;8.60;99.90;;;;;;4997264;28;20120;-74
2022/06/02 03:48:01;;;;;;;10.45;8.02;;;8.10;99.90;;;;;;4996514;28;20061;-74
2022/06/02 03:50:44;;;;;;;10.10;7.90;;;8.50;99.90;;;;;;4995855;28;20529;-74
2022/06/02 03:53:16;;;;;;;9.50;7.05;;;8.10;99.90;;;;;;4996150;28;20043;-75
2022/06/02 03:56:10;;;;;;;8.55;7.28;;;8.50;99.90;;;;;;4995815;28;20483;-75
2022/06/02 03:59:16;;;;;;;9.57;7.57;;;8.20;99.90;;;;;;4996548;28;20050;-75
2022/06/02 04:01:58;;;;;;;10.18;8.05;;;8.20;99.90;;;;;;4995713;28;20085;-75
2022/06/02 04:04:44;;;;;;;10.40;7.80;;;8.20;99.90;;;;;;4996304;28;20371;-75
2022/06/02 04:07:39;;;;;;;9.52;7.45;;;8.40;99.90;;;;;;4995986;28;20061;-75
2022/06/02 04:10:20;;;;;;;12.75;8.38;;;8.20;99.90;;;;;;4996428;28;20423;-76
2022/06/02 04:16:00;;;;;;;10.20;8.00;;;8.50;99.90;;;;;;4996573;28;20050;-75
2022/06/02 04:18:54;;;;;;;13.00;8.90;;;8.20;99.90;;;;;;4995058;28;20108;-75
2022/06/02 04:21:48;;;;;;;10.85;7.95;;;8.20;99.90;;;;;;4996419;28;20053;-75
2022/06/02 04:24:20;;;;;;;11.52;7.85;;;8.20;99.90;;;;;;4996228;28;20391;-75
2022/06/02 04:27:25;;;;;;;9.55;7.93;;;8.30;99.90;;;;;;4995449;28;20039;-75
2022/06/02 04:30:10;;;;;;;10.77;7.80;;;8.70;99.90;;;;;;4995115;28;20066;-76
2022/06/02 04:32:59;;;;;;;11.23;7.95;;;8.40;99.90;;;;;;4996181;28;20046;-75
2022/06/02 04:35:57;;;;;;;8.50;7.00;;;8.70;99.90;;;;;;4994366;28;20046;-75
2022/06/02 04:38:41;;;;;;;8.85;6.85;;;8.50;99.90;;;;;;4995583;28;20050;-76
2022/06/02 04:41:43;;;;;;;8.65;6.45;;;8.90;99.90;;;;;;4994979;28;20073;-75
2022/06/02 04:44:36;;;;;;;8.00;5.70;;;8.60;99.90;;;;;;4986146;28;20066;-75
2022/06/02 04:47:29;;;;;;;7.40;5.20;;;8.70;99.90;;;;;;4995368;28;20052;-76
2022/06/02 04:50:22;;;;;;;8.57;5.43;;;8.80;99.90;;;;;;4995077;28;20060;-75
2022/06/02 04:53:15;;;;;;;8.07;5.47;;;8.80;99.90;;;;;;4994380;28;20402;-75
2022/06/02 04:56:04;;;;;;;7.32;5.25;;;9.00;99.90;;;;;;4994518;28;20050;-75
2022/06/02 04:58:45;;;;;;;7.75;4.22;;;9.10;99.90;;;;;;4984592;28;20058;-75
2022/06/02 05:01:51;;;;;;;6.63;4.40;;;9.40;99.90;;;;;;4994905;28;20042;-75
2022/06/02 05:04:43;;;;;;;6.75;4.72;;;9.20;99.90;;;;;;4994835;28;20049;-76
2022/06/02 05:07:35;;;;;;;5.93;4.00;;;9.30;99.90;;;;;;4994696;28;20115;-76
2022/06/02 05:10:07;;;;;;;6.03;3.97;;;9.40;99.90;;;;;;4994799;28;20046;-76
2022/06/02 05:13:14;;;;;;;8.10;4.20;;;9.50;99.90;;;;;;4994405;28;20541;-76
2022/06/02 05:16:07;;;;;;;4.63;3.67;;;9.60;99.90;;;;;;4994688;28;20046;-76
2022/06/02 05:18:57;;;;;;;6.07;3.47;;;9.70;99.90;;;;;;4994562;28;20050;-76
2022/06/02 05:21:44;;;;;;;4.95;3.05;;;9.70;99.90;;;;;;4995145;28;20057;-76
2022/06/02 05:24:33;;;;;;;3.92;3.08;;;9.90;99.90;;;;;;4994852;28;20050;-76
2022/06/02 05:27:18;;;;;;;3.45;2.90;;;9.90;99.90;;;;;;4994646;28;20046;-76
2022/06/02 05:30:13;;;;;;;3.25;2.47;;;9.90;99.90;;;;;;4993282;28;20076;-76
2022/06/02 05:32:45;;;;;;;4.07;2.67;;;10.00;99.90;;;;;;4993685;28;20089;-76
2022/06/02 05:35:31;;;;;;;2.95;2.20;;;10.10;99.90;;;;;;4994413;28;20046;-76
2022/06/02 05:38:15;;;;;;;2.90;2.05;;;10.20;99.90;;;;;;4994958;28;20426;-75
2022/06/02 05:40:51;;;;;;;2.92;1.90;;;10.30;99.90;;;;;;4995212;28;20042;-75
2022/06/02 05:43:40;;;;;;;3.25;2.00;;;10.70;99.90;;;;;;4994430;28;20046;-75
2022/06/02 05:46:11;;;;;;;3.17;1.83;;;10.20;99.90;;;;;;4994174;28;20053;-76
2022/06/02 05:48:52;;;;;;;3.55;1.92;;;10.60;99.90;;;;;;4994275;28;20078;-76
2022/06/02 05:51:21;;;;;;;3.13;1.88;;;10.60;99.90;;;;;;4977857;28;20046;-76
2022/06/02 05:54:06;;;;;;;4.25;1.83;;;10.90;99.90;;;;;;4994184;28;20053;-76
2022/06/02 05:56:46;;;;;;;2.85;2.25;;;10.70;99.90;;;;;;4994466;28;20047;-76
2022/06/02 05:59:18;;;;;;;2.47;1.92;;;10.80;99.90;;;;;;4994212;28;20050;-79
2022/06/02 06:01:47;;;;;;;2.90;2.00;;;10.80;99.90;;;;;;4994337;28;20517;-76
2022/06/02 06:04:36;;;;;;;3.67;1.55;;;10.80;99.90;;;;;;4994115;28;20057;-75
2022/06/02 06:07:27;;;;;;;3.15;1.48;;;10.90;99.90;;;;;;4996873;28;20505;-76
2022/06/02 06:10:04;;;;;;;2.70;1.98;;;11.00;99.90;;;;;;4998398;28;20483;-75
2022/06/02 06:12:33;;;;;;;3.47;1.67;;;11.10;99.90;;;;;;4998031;28;20093;-76
2022/06/02 06:15:34;;;;;;;3.05;1.92;;;11.10;99.90;;;;;;4996742;28;20090;-75
2022/06/02 06:18:13;;;;;;;2.42;1.67;;;11.00;99.90;;;;;;4996301;28;20054;-74
2022/06/02 06:21:00;;;;;;;2.15;1.55;;;11.10;99.90;;;;;;4997857;28;20057;-74
2022/06/02 06:23:58;;;;;;;4.18;1.52;;;11.20;99.90;;;;;;4996634;28;20042;-75
2022/06/02 06:26:47;;;;;;;4.72;2.25;;;11.20;99.90;;;;;;4998327;28;20051;-74
2022/06/02 06:29:32;;;;;;;4.03;2.10;;;11.30;99.90;;;;;;4997027;28;20379;-75
2022/06/02 06:32:04;;;;;;;3.97;1.80;;;11.30;99.90;;;;;;4998023;28;20439;-76
2022/06/02 06:35:02;;;;;;;2.75;1.70;;;11.50;99.90;;;;;;4997654;28;20047;-74
2022/06/02 06:37:52;;;;;;;2.58;1.45;;;11.50;99.90;;;;;;4989895;28;20046;-75
2022/06/02 06:40:39;;;;;;;2.78;1.50;;;11.70;99.90;;;;;;4997671;28;20046;-76
2022/06/02 06:43:08;;;;;;;2.45;1.38;;;11.60;99.90;;;;;;4997959;28;20379;-75
2022/06/02 06:45:54;;;;;;;1.80;1.33;;;11.70;99.90;;;;;;4996260;28;20059;-75
2022/06/02 06:48:35;;;;;;;2.42;1.60;;;11.70;99.90;;;;;;4996793;28;20364;-73
2022/06/02 06:51:15;;;;;;;2.50;1.10;;;11.80;99.90;;;;;;4997224;28;20058;-78
2022/06/02 06:53:52;;;;;;;1.55;1.00;;;11.80;99.90;;;;;;4996318;28;20085;-75
2022/06/02 06:56:22;;;;;;;2.20;1.10;;;11.90;99.90;;;;;;4997556;28;20050;-74
2022/06/02 06:58:56;;;;;;;2.53;1.00;;;12.10;99.90;;;;;;4997912;28;20079;-73
2022/06/02 07:01:36;;;;;;;1.27;0.70;;;12.00;99.90;;;;;;4997375;28;20053;-76
2022/06/02 07:04:26;;;;;;;1.60;0.85;;;12.00;99.90;;;;;;4997910;28;20054;-73
2022/06/02 07:06:55;;;;;;;1.42;1.00;;;12.10;99.90;;;;;;4999742;28;20081;-73
2022/06/02 07:09:59;;;;;;;2.17;0.90;;;12.20;99.90;;;;;;4999798;28;20127;-75
2022/06/02 07:12:55;;;;;;;1.98;0.80;;;12.20;99.90;;;;;;4997045;28;20050;-74
2022/06/02 07:15:21;;;;;;;2.75;0.90;;;12.30;99.90;;;;;;4996990;28;20049;-76
2022/06/02 07:18:24;;;;;;;2.25;0.85;;;12.30;99.90;;;;;;4997250;28;20042;-81
2022/06/02 07:21:07;;;;;;;2.25;0.70;;;12.40;99.90;;;;;;4971579;28;20054;-80
2022/06/02 07:23:45;;;;;;;2.72;0.80;;;12.50;99.90;;;;;;4996859;28;20046;-78
2022/06/02 07:26:43;;;;;;;3.38;0.90;;;12.60;99.90;;;;;;4995916;28;20054;-75
2022/06/02 07:29:36;;;;;;;3.03;0.73;;;12.60;99.90;;;;;;4996799;28;20058;-77
2022/06/02 07:32:35;;;;;;;1.25;0.70;;;12.70;99.90;;;;;;4996899;28;20054;-76
2022/06/02 07:35:40;;;;;;;3.15;0.90;;;12.80;99.90;;;;;;4980812;28;20055;-77
2022/06/02 07:38:28;;;;;;;3.17;1.00;;;12.80;99.90;;;;;;4995615;28;20181;-75
2022/06/02 07:41:19;;;;;;;1.75;0.90;;;12.80;99.90;;;;;;4997142;28;20053;-75
2022/06/02 07:44:00;;;;;;;1.60;0.90;;;12.90;99.90;;;;;;4997007;28;20069;-75
2022/06/02 07:47:06;;;;;;;2.08;0.90;;;12.90;99.90;;;;;;4996360;28;20054;-74
2022/06/02 07:49:52;;;;;;;2.00;1.00;;;12.90;99.90;;;;;;4996351;28;20058;-75
2022/06/02 07:52:39;;;;;;;1.77;0.80;;;12.90;99.90;;;;;;4996917;28;20061;-74
2022/06/02 07:55:32;;;;;;;3.30;1.25;;;13.00;99.90;;;;;;4996198;28;20054;-74
2022/06/02 07:58:00;;;;;;;4.22;1.10;;;13.00;99.90;;;;;;4995324;28;20090;-75
2022/06/02 08:00:33;;;;;;;1.95;1.00;;;13.00;99.90;;;;;;4996201;28;20050;-75
2022/06/02 08:03:18;;;;;;;;;;;13.10;99.90;;;;;;4996270;28;20506;-72
2022/06/02 08:05:52;;;;;;;2.17;1.00;;;13.10;99.90;;;;;;4995181;28;19922;-72
2022/06/02 08:08:38;;;;;;;1.77;0.80;;;13.10;99.90;;;;;;4996565;28;20387;-71
2022/06/02 08:11:18;;;;;;;1.88;0.80;;;13.10;99.90;;;;;;4996280;28;20050;-73
2022/06/02 08:13:50;;;;;;;2.30;1.02;;;13.20;99.90;;;;;;4995210;28;20046;-73
2022/06/02 08:16:22;;;;;;;3.53;0.90;;;13.20;99.90;;;;;;4994440;28;20050;-72
2022/06/02 08:19:15;;;;;;;2.38;1.08;;;13.30;99.90;;;;;;4995761;28;20058;-74
2022/06/02 08:21:45;;;;;;;1.90;0.90;;;13.40;99.90;;;;;;4994810;28;20509;-75
2022/06/02 08:24:29;;;;;;;1.00;0.75;;;13.50;99.90;;;;;;4994960;28;20050;-73
2022/06/02 08:27:12;;;;;;;3.00;1.00;;;13.70;99.90;;;;;;4995229;28;20077;-73
2022/06/02 08:30:02;;;;;;;2.03;0.90;;;13.50;99.90;;;;;;4994708;28;20131;-73
2022/06/02 08:32:54;;;;;;;1.95;0.88;;;13.50;99.90;;;;;;4993855;28;20072;-73
2022/06/02 08:35:43;;;;;;;2.67;0.77;;;13.60;99.90;;;;;;4994139;28;20042;-73
2022/06/02 08:38:33;;;;;;;1.58;0.80;;;13.60;99.90;;;;;;4995731;28;20502;-73
2022/06/02 08:41:37;;;;;;;2.08;0.80;;;13.70;99.90;;;;;;4995268;28;20362;-72
2022/06/02 08:44:32;;;;;;;2.47;0.82;;;13.80;99.90;;;;;;4977982;28;20054;-73
2022/06/02 08:47:12;;;;;;;2.88;0.73;;;13.80;99.90;;;;;;4994583;28;20112;-73
2022/06/02 08:49:50;;;;;;;2.75;0.90;;;13.80;99.90;;;;;;4994115;28;20457;-72
2022/06/02 08:52:34;;;;;;;2.75;0.80;;;13.90;99.90;;;;;;4995807;28;20430;-73
2022/06/02 08:55:27;;;;;;;2.45;0.90;;;13.90;99.90;;;;;;4995202;28;20046;-73
2022/06/02 08:58:24;;;;;;;2.50;0.75;;;13.90;99.90;;;;;;4998257;28;20042;-73
2022/06/02 09:01:11;;;;;;;2.22;0.88;;;13.90;99.90;;;;;;4998366;28;20046;-73
2022/06/02 09:03:41;;;;;;;1.52;0.88;;;14.00;99.90;;;;;;4997816;28;20568;-72
2022/06/02 09:06:34;;;;;;;1.55;0.80;;;14.10;99.90;;;;;;4997785;28;20499;-74
2022/06/02 09:09:27;;;;;;;2.05;0.80;;;14.20;99.90;;;;;;4982050;28;20494;-74
2022/06/02 09:12:30;;;;;;;2.22;0.70;;;14.30;99.90;;;;;;5000537;28;20133;-73
2022/06/02 09:15:17;;;;;;;2.05;0.70;;;14.30;99.90;;;;;;4999261;28;20052;-73
2022/06/02 09:18:09;;;;;;;1.50;0.80;;;14.30;99.90;;;;;;4996350;28;20054;-73
2022/06/02 09:20:57;;;;;;;2.28;0.80;;;14.40;99.90;;;;;;4995202;28;20135;-72
2022/06/02 09:24:17;;;;;;;1.08;0.70;;;14.50;99.90;;;;;;4995603;28;20046;-77
2022/06/02 09:26:54;;;;;;;2.10;0.80;;;14.60;99.90;;;;;;4973166;28;20089;-74
2022/06/02 09:29:48;;;;;;;0.70;0.60;;;14.70;99.90;;;;;;4994254;28;20065;-76
2022/06/02 09:32:23;;;;;;;2.45;0.60;;;14.80;99.90;;;;;;4993626;28;20061;-72
2022/06/02 09:34:54;;;;;;;0.73;0.60;;;14.80;99.90;;;;;;4994535;28;20136;-73
2022/06/02 09:37:39;;;;;;;1.73;0.60;;;14.80;99.90;;;;;;4993562;28;20465;-72
2022/06/02 09:40:23;;;;;;;1.05;0.70;;;14.80;99.90;;;;;;4995074;28;20073;-74
2022/06/02 09:42:58;;;;;;;2.42;0.70;;;14.80;99.90;;;;;;4993744;28;20601;-74
2022/06/02 09:45:44;;;;;;;1.60;0.70;;;14.80;99.90;;;;;;4994420;28;20136;-73
2022/06/02 09:48:13;;;;;;;2.03;0.80;;;14.90;99.90;;;;;;4994344;28;20042;-73
2022/06/02 09:50:57;;;;;;;0.77;0.70;;;15.00;99.90;;;;;;4994270;28;20133;-72
2022/06/02 09:53:42;;;;;;;2.30;0.75;;;15.00;99.90;;;;;;4994303;28;20104;-74
2022/06/02 09:56:26;;;;;;;1.75;0.60;;;15.00;99.90;;;;;;4994517;28;20503;-74
2022/06/02 09:59:03;;;;;;;1.38;0.90;;;15.00;99.90;;;;;;4994835;28;20046;-72
2022/06/02 10:01:44;;;;;;;1.35;0.65;;;14.90;99.90;;;;;;4994007;28;20482;-72
2022/06/02 10:04:34;;;;;;;2.00;0.60;;;15.00;99.90;;;;;;4994070;28;20409;-75
2022/06/02 10:07:28;;;;;;;2.58;0.70;;;15.00;99.90;;;;;;4994676;28;20410;-72
2022/06/02 10:10:17;;;;;;;1.00;0.80;;;15.10;99.90;;;;;;4994233;28;20050;-73
2022/06/02 10:13:07;;;;;;;1.27;0.70;;;15.30;99.90;;;;;;4994189;28;20053;-72
2022/06/02 10:15:42;;;;;;;3.17;0.75;;;15.30;99.90;;;;;;4994725;28;20057;-73
2022/06/02 10:18:39;;;;;;;0.98;0.63;;;15.30;99.90;;;;;;4994113;28;20132;-73
2022/06/02 10:21:27;;;;;;;1.52;0.70;;;15.30;99.90;;;;;;4992975;28;20054;-72
2022/06/02 10:24:15;;;;;;;1.75;0.70;;;15.30;99.90;;;;;;4994083;28;20398;-74
2022/06/02 10:26:49;;;;;;;3.00;0.80;;;15.30;99.90;;;;;;4993693;28;20507;-72
2022/06/02 10:29:45;;;;;;;4.00;0.80;;;15.30;99.90;;;;;;4994810;28;20053;-72
2022/06/02 10:32:32;;;;;;;2.83;0.77;;;15.50;99.90;;;;;;4994543;28;20134;-73
2022/06/02 10:35:04;;;;;;;1.30;0.80;;;15.50;99.90;;;;;;4993987;28;20086;-72
2022/06/02 10:37:55;;;;;;;1.75;0.80;;;15.40;99.90;;;;;;4994035;28;20046;-75
2022/06/02 10:40:27;;;;;;;2.55;0.80;;;15.30;99.90;;;;;;4990654;28;20046;-73
2022/06/02 10:42:59;;;;;;;2.40;0.90;;;15.20;99.90;;;;;;4993882;28;20120;-73
2022/06/02 10:46:09;;;;;;;1.13;0.70;;;15.30;99.90;;;;;;4994546;28;20221;-73
2022/06/02 10:49:18;;;;;;;1.45;1.35;;;15.30;99.90;;;;;;4993917;28;20112;-73
2022/06/02 10:51:55;;;;;;;2.03;0.80;;;15.40;99.90;;;;;;4992600;28;20061;-72
2022/06/02 10:54:27;;;;;;;1.30;0.80;;;15.60;99.90;;;;;;4997486;28;20093;-72
2022/06/02 10:57:15;;;;;;;1.58;0.90;;;15.70;99.90;;;;;;4997474;28;20085;-72
2022/06/02 10:59:40;;;;;;;1.95;0.90;;;15.90;99.90;;;;;;4996434;28;20475;-74
2022/06/02 11:02:18;;;;;;;1.52;0.80;;;15.90;99.90;;;;;;4997276;28;20053;-73
2022/06/02 11:05:33;;;;;;;1.95;0.80;;;15.90;99.90;;;;;;4997199;28;20046;-73
2022/06/02 11:08:34;;;;;;;1.63;0.80;;;15.80;99.90;;;;;;4987961;28;20057;-72
2022/06/02 11:11:18;;;;;;;0.80;0.70;;;15.70;99.90;;;;;;4997194;28;20054;-73
2022/06/02 11:14:28;;;;;;;2.40;1.00;;;15.70;99.90;;;;;;4996072;28;20046;-73
2022/06/02 11:16:57;;;;;;;1.38;0.75;;;15.80;99.90;;;;;;4997816;28;20100;-73
2022/06/02 11:19:46;;;;;;;2.47;0.90;;;16.00;99.90;;;;;;4997491;28;20046;-72
2022/06/02 11:22:23;;;;;;;2.28;0.80;;;16.00;99.90;;;;;;4997234;28;20046;-72
2022/06/02 11:25:08;;;;;;;3.17;1.20;;;16.10;99.90;;;;;;4997185;28;20402;-72
2022/06/02 11:28:08;;;;;;;1.80;0.80;;;16.20;99.90;;;;;;4997961;28;20086;-74
2022/06/02 11:30:58;;;;;;;1.05;0.70;;;16.20;99.90;;;;;;4997027;28;20483;-72
2022/06/02 11:33:51;;;;;;;2.35;0.80;;;16.10;99.90;;;;;;4996778;28;20565;-71
2022/06/02 11:36:38;;;;;;;1.35;0.80;;;16.00;99.90;;;;;;4997273;28;20053;-71
2022/06/02 11:39:09;;;;;;;1.98;0.77;;;16.00;99.90;;;;;;4997377;28;20137;-71
2022/06/02 11:41:41;;;;;;;1.95;0.73;;;16.10;99.90;;;;;;4996514;28;20057;-72
2022/06/02 11:44:24;;;;;;;1.33;0.80;;;16.20;99.90;;;;;;4996490;28;20058;-72
2022/06/02 11:47:05;;;;;;;1.33;0.80;;;16.40;99.90;;;;;;4996454;28;20057;-71
2022/06/02 11:50:02;;;;;;;2.72;1.10;;;16.50;99.90;;;;;;4996489;28;20057;-72
2022/06/02 11:52:53;;;;;;;2.80;0.82;;;16.60;99.90;;;;;;4997143;28;20046;-72
2022/06/02 11:55:43;;;;;;;0.82;0.70;;;16.70;99.90;;;;;;4997156;28;20050;-73
2022/06/02 11:58:18;;;;;;;2.05;0.90;;;16.80;99.90;;;;;;4995155;28;20118;-71
2022/06/02 12:00:50;;;;;;;1.45;0.88;;;16.60;99.90;;;;;;4996058;28;20050;-74
2022/06/02 12:03:43;;;;;;;1.00;0.90;;;16.60;99.90;;;;;;4979735;28;20089;-74
2022/06/02 12:06:21;;;;;;;2.47;0.80;;;16.60;99.90;;;;;;4994870;28;20046;-75
2022/06/02 12:08:56;;;;;;;1.60;0.73;;;16.50;99.90;;;;;;4996667;28;20050;-75
2022/06/02 12:11:59;;;;;;;1.70;0.70;;;16.50;99.90;;;;;;4996003;28;20128;-75
2022/06/02 12:14:46;;;;;;;2.60;0.90;;;16.50;99.90;;;;;;4995974;28;20050;-74
2022/06/02 12:17:12;;;;;;;1.20;0.80;;;16.60;99.90;;;;;;4995852;28;20048;-75
2022/06/02 12:20:21;;;;;;;2.00;0.77;;;16.60;99.90;;;;;;4995671;28;20133;-72
2022/06/02 12:22:47;;;;;;;0.85;0.82;;;16.70;99.90;;;;;;4995054;28;20117;-72
2022/06/02 12:25:34;;;;;;;1.88;0.80;;;16.70;99.90;;;;;;4994796;28;20089;-73
2022/06/02 12:28:37;;;;;;;2.55;0.65;;;16.80;99.90;;;;;;4996221;28;20046;-72
2022/06/02 12:31:53;;;;;;;1.05;0.70;;;16.80;99.90;;;;;;4995614;28;20046;-73
2022/06/02 12:34:30;;;;;;;1.05;0.80;;;16.90;99.90;;;;;;4957838;28;20185;-73
2022/06/02 12:37:16;;;;;;;0.88;0.70;;;17.00;99.90;;;;;;4988734;28;20481;-73
2022/06/02 12:40:09;;;;;;;1.35;0.70;;;16.90;99.90;;;;;;4995477;28;20054;-74
2022/06/02 12:42:43;;;;;;;2.42;0.90;;;16.90;99.90;;;;;;4994215;28;20046;-75
2022/06/02 12:45:30;;;;;;;1.40;0.70;;;16.70;99.90;;;;;;4994020;28;20062;-72
2022/06/02 12:48:33;;;;;;;1.17;0.77;;;16.60;99.90;;;;;;4995611;28;20061;-76
2022/06/02 12:51:11;;;;;;;1.13;0.80;;;16.70;99.90;;;;;;4995755;28;20042;-74
2022/06/02 12:53:49;;;;;;;2.88;0.70;;;16.80;99.90;;;;;;4995527;28;20554;-74
2022/06/02 12:56:35;;;;;;;1.00;0.70;;;16.90;99.90;;;;;;4995136;28;20042;-73
2022/06/02 12:59:31;;;;;;;1.80;0.90;;;17.00;99.90;;;;;;4994095;28;20046;-73
2022/06/02 13:02:04;;;;;;;1.50;0.88;;;17.00;99.90;;;;;;4994171;28;20043;-73
2022/06/02 13:05:06;;;;;;;2.05;0.90;;;17.00;99.90;;;;;;4994346;28;20050;-73
2022/06/02 13:08:09;;;;;;;2.97;0.77;;;17.20;99.90;;;;;;4994092;28;20623;-72
2022/06/02 13:10:57;;;;;;;1.38;0.90;;;17.30;99.90;;;;;;4995436;28;20101;-74
2022/06/02 13:13:35;;;;;;;2.85;0.88;;;17.50;99.90;;;;;;4994890;28;20077;-73
2022/06/02 13:16:25;;;;;;;1.67;0.90;;;17.60;99.90;;;;;;4994351;28;20082;-73
2022/06/02 13:18:54;;;;;;;1.05;0.90;;;17.50;99.90;;;;;;4994515;28;20108;-73
2022/06/02 13:21:35;;;;;;;2.40;0.90;;;17.30;99.90;;;;;;4993751;28;20046;-73
2022/06/02 13:24:25;;;;;;;2.92;0.90;;;17.20;99.90;;;;;;4994198;28;20054;-73
2022/06/02 13:27:11;;;;;;;2.20;0.82;;;17.10;99.90;;;;;;4994054;28;20042;-74
2022/06/02 13:30:06;;;;;;;0.90;0.80;;;17.30;99.90;;;;;;4993619;28;20058;-72
2022/06/02 13:32:34;;;;;;;1.50;0.80;;;17.40;99.90;;;;;;4993530;28;20058;-73
2022/06/02 13:35:37;;;;;;;1.30;0.70;;;17.50;99.90;;;;;;4993853;28;20063;-72
2022/06/02 13:38:18;;;;;;;1.77;0.65;;;17.50;99.90;;;;;;4993705;28;20174;-72
2022/06/02 13:41:14;;;;;;;0.95;0.80;;;17.40;99.90;;;;;;4993985;28;20491;-74
2022/06/02 13:44:01;;;;;;;2.10;0.80;;;17.30;99.90;;;;;;4994528;28;20062;-74
2022/06/02 13:47:05;;;;;;;1.80;0.80;;;17.20;99.90;;;;;;4994908;28;20054;-73
2022/06/02 13:50:08;;;;;;;1.25;0.70;;;17.20;99.90;;;;;;4994304;28;20050;-73
2022/06/02 13:53:22;;;;;;;1.33;0.80;;;17.20;99.90;;;;;;4994384;28;20510;-72
2022/06/02 13:59:14;;;;;;;1.15;0.73;;;17.50;99.90;;;;;;4993474;28;20060;-74
2022/06/02 14:01:46;;;;;;;2.92;0.90;;;17.50;99.90;;;;;;4993667;28;20042;-74
2022/06/02 14:04:43;;;;;;;2.90;0.77;;;17.70;99.90;;;;;;4994511;28;20046;-73
2022/06/02 14:07:38;;;;;;;0.75;0.70;;;17.70;99.90;;;;;;4993501;28;20051;-74
2022/06/02 14:10:42;;;;;;;1.33;0.80;;;17.70;99.90;;;;;;4991335;28;20054;-73
2022/06/02 14:13:26;;;;;;;6.90;1.73;;;17.70;99.90;;;;;;4992967;28;20058;-77
2022/06/02 14:16:21;;;;;;;2.33;0.80;;;17.70;99.90;;;;;;4994724;28;20090;-75
2022/06/02 14:19:10;;;;;;;1.13;0.57;;;17.30;99.90;;;;;;4994029;28;20050;-79
2022/06/02 14:22:06;;;;;;;0.80;0.60;;;17.60;99.90;;;;;;4994308;28;20386;-77
2022/06/02 14:24:39;;;;;;;1.85;0.70;;;17.60;99.90;;;;;;4994095;28;20054;-77
2022/06/02 14:27:50;;;;;;;2.10;0.80;;;17.50;99.90;;;;;;4994448;28;20054;-75
2022/06/02 14:30:19;;;;;;;0.95;0.70;;;17.40;99.90;;;;;;4997182;28;20057;-76
2022/06/02 14:33:10;;;;;;;1.98;0.60;;;17.30;99.90;;;;;;4997314;28;20454;-79
2022/06/02 14:35:40;;;;;;;0.82;0.70;;;17.30;99.90;;;;;;4998479;28;20173;-77